createdAt,value
2023-05-16T00:02:11.373Z,2.33
2023-05-16T00:04:39.377Z,1.62
2023-05-16T00:07:07.059Z,2.95
2023-05-16T00:09:34.584Z,2.00
2023-05-16T00:12:02.705Z,2.00
2023-05-16T00:14:30.223Z,2.20
2023-05-16T00:17:01.136Z,1.90
2023-05-16T00:19:30.212Z,1.50
2023-05-16T00:21:57.758Z,1.80
2023-05-16T00:24:25.242Z,2.33
2023-05-16T00:26:53.064Z,1.77
2023-05-16T00:29:21.665Z,3.47
2023-05-16T00:31:49.218Z,1.70
2023-05-16T00:34:18.791Z,6.03
2023-05-16T00:36:46.372Z,2.50
2023-05-16T00:39:15.718Z,1.20
2023-05-16T00:41:43.974Z,1.60
2023-05-16T00:44:11.763Z,1.55
2023-05-16T00:46:39.368Z,2.03
2023-05-16T00:49:08.956Z,2.20
2023-05-16T00:51:38.784Z,1.27
2023-05-16T00:54:07.425Z,1.40
2023-05-16T00:56:35.330Z,1.87
2023-05-16T00:59:03.925Z,1.60
2023-05-16T01:01:32.919Z,2.10
2023-05-16T01:04:01.456Z,2.45
2023-05-16T01:06:29.343Z,1.80
2023-05-16T01:08:57.104Z,1.33
2023-05-16T01:11:36.518Z,2.12
2023-05-16T01:14:20.300Z,1.57
2023-05-16T01:17:11.999Z,2.20
2023-05-16T01:19:39.390Z,3.40
2023-05-16T01:22:16.478Z,1.48
2023-05-16T01:25:17.975Z,2.90
2023-05-16T01:27:46.932Z,2.70
2023-05-16T01:30:16.912Z,1.70
2023-05-16T01:32:45.211Z,1.77
2023-05-16T01:35:16.074Z,1.98
2023-05-16T01:37:57.225Z,1.75
2023-05-16T01:40:38.045Z,2.17
2023-05-16T01:43:11.821Z,3.15
2023-05-16T01:45:47.144Z,2.03
2023-05-16T01:48:22.274Z,1.75
2023-05-16T01:50:56.243Z,3.40
2023-05-16T01:53:29.810Z,2.17
2023-05-16T01:56:00.318Z,2.17
2023-05-16T01:58:30.850Z,3.53
2023-05-16T02:01:06.240Z,2.10
2023-05-16T02:03:35.427Z,2.95
2023-05-16T02:06:02.985Z,3.83
2023-05-16T02:08:31.332Z,3.40
2023-05-16T02:10:59.158Z,2.28
2023-05-16T02:13:26.791Z,2.30
2023-05-16T02:15:54.488Z,2.00
2023-05-16T02:18:23.671Z,2.67
2023-05-16T02:20:51.382Z,1.95
2023-05-16T02:23:19.036Z,1.83
2023-05-16T02:25:46.941Z,2.70
2023-05-16T02:28:14.539Z,1.77
2023-05-16T02:30:42.194Z,2.17
2023-05-16T02:33:11.566Z,2.33
2023-05-16T02:35:39.104Z,1.40
2023-05-16T02:38:07.049Z,2.30
2023-05-16T02:40:35.125Z,1.90
2023-05-16T02:43:03.097Z,3.30
2023-05-16T02:45:30.901Z,2.78
2023-05-16T02:47:58.729Z,2.10
2023-05-16T02:50:26.374Z,3.03
2023-05-16T02:52:53.892Z,2.45
2023-05-16T02:55:22.673Z,2.80
2023-05-16T02:57:51.139Z,1.27
2023-05-16T03:00:19.817Z,1.60
2023-05-16T03:02:47.848Z,1.92
2023-05-16T03:05:15.490Z,2.33
2023-05-16T03:07:43.067Z,1.33
2023-05-16T03:10:11.277Z,1.52
2023-05-16T03:12:39.121Z,1.95
2023-05-16T03:15:08.395Z,2.60
2023-05-16T03:17:37.099Z,1.58
2023-05-16T03:20:05.340Z,3.37
2023-05-16T03:22:32.873Z,2.47
2023-05-16T03:25:00.760Z,1.95
2023-05-16T03:27:28.273Z,2.53
2023-05-16T03:29:55.913Z,2.78
2023-05-16T03:32:23.852Z,4.77
2023-05-16T03:34:51.999Z,4.57
2023-05-16T03:37:19.583Z,3.70
2023-05-16T03:39:47.487Z,2.08
2023-05-16T03:42:15.213Z,3.00
2023-05-16T03:44:42.757Z,4.30
2023-05-16T03:47:10.779Z,4.03
2023-05-16T03:49:38.312Z,2.70
2023-05-16T03:52:06.064Z,6.12
2023-05-16T03:54:33.853Z,2.60
2023-05-16T03:57:01.590Z,2.40
2023-05-16T03:59:29.080Z,2.97
2023-05-16T04:01:56.922Z,3.10
2023-05-16T04:04:24.792Z,3.22
2023-05-16T04:06:52.322Z,3.00
2023-05-16T04:09:19.862Z,3.57
2023-05-16T04:11:48.463Z,1.98
2023-05-16T04:14:16.070Z,1.87
2023-05-16T04:16:43.663Z,2.50
2023-05-16T04:19:11.561Z,1.85
2023-05-16T04:21:39.091Z,2.50
2023-05-16T04:24:07.233Z,1.80
2023-05-16T04:26:35.744Z,2.00
2023-05-16T04:29:03.885Z,1.77
2023-05-16T04:31:31.543Z,2.00
2023-05-16T04:33:59.400Z,2.37
2023-05-16T04:36:30.255Z,2.20
2023-05-16T04:38:57.894Z,1.85
2023-05-16T04:41:25.678Z,5.95
2023-05-16T04:43:53.776Z,3.00
2023-05-16T04:46:21.394Z,1.83
2023-05-16T04:48:49.260Z,2.95
2023-05-16T04:51:16.766Z,3.17
2023-05-16T04:53:44.291Z,2.17
2023-05-16T04:56:12.085Z,2.12
2023-05-16T04:58:41.074Z,2.70
2023-05-16T05:01:10.252Z,2.22
2023-05-16T05:03:38.153Z,3.60
2023-05-16T05:06:06.002Z,2.80
2023-05-16T05:08:33.576Z,1.90
2023-05-16T05:11:01.360Z,2.03
2023-05-16T05:13:28.925Z,1.52
2023-05-16T05:15:56.515Z,3.37
2023-05-16T05:18:24.351Z,1.92
2023-05-16T05:20:52.938Z,2.10
2023-05-16T05:23:20.920Z,1.50
2023-05-16T05:25:48.770Z,2.15
2023-05-16T05:28:16.420Z,1.70
2023-05-16T05:30:44.025Z,1.83
2023-05-16T05:33:14.592Z,2.10
2023-05-16T05:35:42.151Z,2.23
2023-05-16T05:38:09.715Z,1.48
2023-05-16T05:40:37.428Z,3.37
2023-05-16T05:43:04.883Z,3.17
2023-05-16T05:45:32.424Z,2.72
2023-05-16T05:48:00.284Z,1.80
2023-05-16T05:50:27.812Z,2.00
2023-05-16T05:52:56.348Z,2.17
2023-05-16T05:55:24.255Z,2.00
2023-05-16T05:57:51.786Z,1.67
2023-05-16T06:00:19.503Z,1.87
2023-05-16T06:02:48.330Z,3.05
2023-05-16T06:05:15.942Z,2.40
2023-05-16T06:07:43.503Z,2.40
2023-05-16T06:10:11.478Z,2.90
2023-05-16T06:12:39.003Z,4.10
2023-05-16T06:15:07.071Z,2.50
2023-05-16T06:17:34.980Z,3.55
2023-05-16T06:20:02.747Z,2.25
2023-05-16T06:22:30.218Z,4.20
2023-05-16T06:24:58.029Z,3.47
2023-05-16T06:27:26.014Z,3.35
2023-05-16T06:29:53.531Z,3.15
2023-05-16T06:32:21.447Z,3.75
2023-05-16T06:34:49.579Z,4.87
2023-05-16T06:37:17.338Z,3.37
2023-05-16T06:39:45.110Z,3.20
2023-05-16T06:42:13.153Z,2.80
2023-05-16T06:44:41.267Z,5.00
2023-05-16T06:47:09.164Z,3.62
2023-05-16T06:49:36.729Z,3.87
2023-05-16T06:52:04.548Z,5.15
2023-05-16T06:54:32.451Z,3.40
2023-05-16T06:56:59.945Z,4.35
2023-05-16T06:59:28.193Z,4.30
2023-05-16T07:01:56.207Z,5.27
2023-05-16T07:04:24.359Z,4.50
2023-05-16T07:06:51.891Z,3.65
2023-05-16T07:09:19.903Z,3.30
2023-05-16T07:11:47.390Z,5.93
2023-05-16T07:14:15.415Z,4.90
2023-05-16T07:16:43.378Z,4.95
2023-05-16T07:19:10.932Z,5.35
2023-05-16T07:21:38.510Z,5.25
2023-05-16T07:24:08.070Z,5.35
2023-05-16T07:26:35.819Z,6.77
2023-05-16T07:29:04.486Z,6.60
2023-05-16T07:31:32.401Z,5.75
2023-05-16T07:34:00.014Z,7.00
2023-05-16T07:36:27.625Z,6.20
2023-05-16T07:38:55.442Z,7.60
2023-05-16T07:41:22.958Z,7.25
2023-05-16T07:43:50.622Z,5.18
2023-05-16T07:46:18.548Z,5.62
2023-05-16T07:48:46.601Z,7.55
2023-05-16T07:51:14.116Z,11.33
2023-05-16T07:53:42.173Z,8.32
2023-05-16T07:56:09.774Z,8.23
2023-05-16T07:58:37.466Z,8.68
2023-05-16T08:01:05.819Z,11.18
2023-05-16T08:03:33.997Z,7.30
2023-05-16T08:06:02.085Z,8.18
2023-05-16T08:08:29.689Z,7.37
2023-05-16T08:10:57.573Z,7.12
2023-05-16T08:13:25.247Z,5.72
2023-05-16T08:15:52.983Z,6.97
2023-05-16T08:18:22.426Z,7.45
2023-05-16T08:20:51.324Z,11.32
2023-05-16T08:23:19.220Z,10.05
2023-05-16T08:25:47.678Z,11.98
2023-05-16T08:28:15.297Z,6.83
2023-05-16T08:30:43.762Z,8.18
2023-05-16T08:33:12.523Z,8.35
2023-05-16T08:35:44.386Z,7.15
2023-05-16T08:38:12.432Z,8.25
2023-05-16T08:40:40.583Z,9.67
2023-05-16T08:43:08.497Z,12.82
2023-05-16T08:45:36.361Z,7.32
2023-05-16T08:48:07.194Z,9.48
2023-05-16T08:50:36.942Z,9.88
2023-05-16T08:53:09.773Z,8.30
2023-05-16T08:55:38.559Z,8.25
2023-05-16T08:58:06.718Z,9.65
2023-05-16T09:00:35.593Z,10.05
2023-05-16T09:03:04.270Z,8.60
2023-05-16T09:05:32.247Z,10.83
2023-05-16T09:08:00.383Z,8.57
2023-05-16T09:10:28.270Z,11.05
2023-05-16T09:12:55.801Z,12.77
2023-05-16T09:15:23.294Z,10.07
2023-05-16T09:17:51.687Z,10.83
2023-05-16T09:20:20.900Z,8.52
2023-05-16T09:23:06.450Z,11.15
2023-05-16T09:25:34.708Z,10.20
2023-05-16T09:28:03.409Z,10.80
2023-05-16T09:30:33.851Z,13.00
2023-05-16T09:33:02.410Z,9.63
2023-05-16T09:35:43.963Z,10.00
2023-05-16T09:38:17.407Z,11.55
2023-05-16T09:40:46.135Z,11.82
2023-05-16T09:43:18.052Z,10.17
2023-05-16T09:45:48.279Z,9.75
2023-05-16T09:48:17.297Z,9.82
2023-05-16T09:50:52.965Z,11.52
2023-05-16T09:53:32.515Z,8.32
2023-05-16T09:56:01.361Z,9.07
2023-05-16T09:58:31.220Z,11.02
2023-05-16T10:00:59.716Z,10.70
2023-05-16T10:03:28.207Z,10.52
2023-05-16T10:05:56.572Z,11.48
2023-05-16T10:08:27.716Z,11.47
2023-05-16T10:10:56.952Z,12.90
2023-05-16T10:13:29.483Z,9.32
2023-05-16T10:15:58.697Z,10.20
2023-05-16T10:18:30.493Z,10.40
2023-05-16T10:21:04.509Z,9.63
2023-05-16T10:23:33.729Z,12.68
2023-05-16T10:26:04.784Z,9.60
2023-05-16T10:28:32.895Z,10.90
2023-05-16T10:31:02.997Z,9.93
2023-05-16T10:33:30.613Z,12.70
2023-05-16T10:35:59.024Z,7.87
2023-05-16T10:38:27.530Z,8.32
2023-05-16T10:40:56.028Z,8.80
2023-05-16T10:43:28.170Z,9.10
2023-05-16T10:46:04.829Z,12.57
2023-05-16T10:48:34.977Z,9.20
2023-05-16T10:51:04.177Z,8.38
2023-05-16T10:53:34.062Z,12.32
2023-05-16T10:56:01.673Z,8.82
2023-05-16T10:58:42.614Z,8.63
2023-05-16T11:01:30.606Z,8.73
2023-05-16T11:04:07.773Z,7.87
2023-05-16T11:06:41.281Z,9.68
2023-05-16T11:09:12.057Z,7.72
2023-05-16T11:11:55.033Z,11.33
2023-05-16T11:14:24.602Z,12.05
2023-05-16T11:17:16.147Z,11.57
2023-05-16T11:19:51.849Z,9.60
2023-05-16T11:22:19.473Z,11.12
2023-05-16T11:24:57.526Z,8.00
2023-05-16T11:27:43.827Z,10.13
2023-05-16T11:30:14.591Z,11.68
2023-05-16T11:32:45.785Z,10.60
2023-05-16T11:35:16.118Z,11.85
2023-05-16T11:37:45.511Z,8.73
2023-05-16T11:40:14.768Z,10.45
2023-05-16T11:42:45.002Z,9.32
2023-05-16T11:45:17.844Z,12.95
2023-05-16T11:47:50.148Z,9.63
2023-05-16T11:50:20.545Z,9.50
2023-05-16T11:52:54.007Z,11.80
2023-05-16T11:55:41.967Z,9.18
2023-05-16T11:58:10.796Z,8.32
2023-05-16T12:00:48.721Z,8.63
2023-05-16T12:03:21.210Z,11.00
2023-05-16T12:05:57.953Z,11.18
2023-05-16T12:08:25.923Z,8.43
2023-05-16T12:10:53.983Z,8.52
2023-05-16T12:13:24.440Z,8.07
2023-05-16T12:15:52.976Z,8.60
2023-05-16T12:18:22.073Z,11.73
2023-05-16T12:20:49.975Z,9.32
2023-05-16T12:23:17.859Z,9.07
2023-05-16T12:25:47.784Z,8.75
2023-05-16T12:28:16.285Z,10.17
2023-05-16T12:30:48.059Z,9.13
2023-05-16T12:33:16.439Z,11.38
2023-05-16T12:35:45.823Z,13.05
2023-05-16T12:38:15.311Z,8.18
2023-05-16T12:40:44.380Z,9.40
2023-05-16T12:43:22.241Z,12.55
2023-05-16T12:45:52.891Z,11.43
2023-05-16T12:48:22.133Z,12.10
2023-05-16T12:50:50.029Z,10.25
2023-05-16T12:53:18.949Z,9.47
2023-05-16T12:55:47.854Z,9.30
2023-05-16T12:58:16.635Z,10.75
2023-05-16T13:00:44.374Z,10.95
2023-05-16T13:03:12.468Z,10.45
2023-05-16T13:05:40.178Z,8.53
2023-05-16T13:08:07.813Z,10.63
2023-05-16T13:10:36.209Z,12.00
2023-05-16T13:13:04.603Z,14.25
2023-05-16T13:15:32.445Z,6.28
2023-05-16T13:18:00.470Z,8.53
2023-05-16T13:20:29.140Z,9.35
2023-05-16T13:22:56.741Z,10.80
2023-05-16T13:25:24.722Z,8.82
2023-05-16T13:27:52.314Z,8.90
2023-05-16T13:30:19.894Z,8.37
2023-05-16T13:32:48.692Z,10.43
2023-05-16T13:35:16.330Z,9.38
2023-05-16T13:37:44.104Z,8.05
2023-05-16T13:40:12.184Z,15.77
2023-05-16T13:42:39.812Z,9.30
2023-05-16T13:45:08.171Z,8.40
2023-05-16T13:47:36.929Z,11.45
2023-05-16T13:50:09.398Z,7.60
2023-05-16T13:52:40.866Z,8.07
2023-05-16T13:55:08.573Z,7.50
2023-05-16T13:57:36.682Z,11.07
2023-05-16T14:02:45.145Z,9.73
2023-05-16T14:05:12.699Z,7.90
2023-05-16T14:07:41.122Z,7.50
2023-05-16T14:10:09.675Z,12.27
2023-05-16T14:12:38.251Z,9.20
2023-05-16T14:15:06.880Z,7.22
2023-05-16T14:17:34.798Z,10.50
2023-05-16T14:20:02.431Z,6.47
2023-05-16T14:22:30.038Z,10.80
2023-05-16T14:24:58.098Z,12.82
2023-05-16T14:27:25.714Z,9.52
2023-05-16T14:29:53.307Z,8.73
2023-05-16T14:32:21.542Z,14.33
2023-05-16T14:34:49.177Z,10.00
2023-05-16T14:37:17.040Z,7.15
2023-05-16T14:39:46.637Z,7.07
2023-05-16T14:42:14.221Z,8.48
2023-05-16T14:44:41.785Z,6.53
2023-05-16T14:47:09.626Z,11.52
2023-05-16T14:49:37.212Z,9.07
2023-05-16T14:52:05.129Z,11.70
2023-05-16T14:54:33.169Z,8.43
2023-05-16T14:57:01.072Z,9.00
2023-05-16T14:59:28.709Z,7.37
2023-05-16T15:01:56.685Z,8.27
2023-05-16T15:04:24.372Z,11.38
2023-05-16T15:06:51.894Z,9.52
2023-05-16T15:09:20.491Z,8.70
2023-05-16T15:11:48.162Z,10.85
2023-05-16T15:14:15.938Z,9.27
2023-05-16T15:16:44.086Z,12.60
2023-05-16T15:19:11.856Z,11.50
2023-05-16T15:21:39.628Z,7.13
2023-05-16T15:24:08.442Z,9.68
2023-05-16T15:26:36.097Z,10.52
2023-05-16T15:29:03.676Z,7.85
2023-05-16T15:31:32.257Z,11.12
2023-05-16T15:34:00.013Z,6.73
2023-05-16T15:36:27.636Z,11.80
2023-05-16T15:38:55.477Z,8.75
2023-05-16T15:41:37.146Z,11.10
2023-05-16T15:44:11.384Z,10.15
2023-05-16T15:46:39.089Z,7.67
2023-05-16T15:49:06.697Z,10.68
2023-05-16T15:51:34.522Z,6.62
2023-05-16T15:54:02.808Z,7.05
2023-05-16T15:56:30.529Z,9.30
2023-05-16T15:58:58.484Z,6.53
2023-05-16T16:01:26.113Z,10.32
2023-05-16T16:03:54.245Z,8.63
2023-05-16T16:06:21.921Z,11.45
2023-05-16T16:08:49.534Z,9.02
2023-05-16T16:11:18.733Z,10.70
2023-05-16T16:13:46.332Z,9.88
2023-05-16T16:16:13.976Z,7.12
2023-05-16T16:18:43.197Z,11.30
2023-05-16T16:21:11.811Z,10.10
2023-05-16T16:23:39.449Z,8.07
2023-05-16T16:26:07.338Z,11.88
2023-05-16T16:28:34.949Z,12.95
2023-05-16T16:31:02.510Z,11.25
2023-05-16T16:33:31.079Z,9.85
2023-05-16T16:35:59.452Z,10.27
2023-05-16T16:38:27.056Z,9.43
2023-05-16T16:40:54.938Z,10.15
2023-05-16T16:43:22.537Z,11.68
2023-05-16T16:45:50.718Z,11.05
2023-05-16T16:48:18.606Z,8.67
2023-05-16T16:50:46.313Z,11.60
2023-05-16T16:53:13.890Z,9.18
2023-05-16T16:55:41.789Z,9.80
2023-05-16T16:58:09.323Z,10.43
2023-05-16T17:00:36.926Z,10.70
2023-05-16T17:03:05.228Z,8.10
2023-05-16T17:05:32.932Z,8.13
2023-05-16T17:08:00.666Z,10.40
2023-05-16T17:10:28.809Z,9.13
2023-05-16T17:12:59.407Z,10.90
2023-05-16T17:15:27.322Z,8.27
2023-05-16T17:17:55.382Z,11.07
2023-05-16T17:20:23.017Z,10.45
2023-05-16T17:22:50.816Z,8.90
2023-05-16T17:25:19.025Z,9.60
2023-05-16T17:27:46.585Z,9.48
2023-05-16T17:30:14.481Z,10.38
2023-05-16T17:32:42.690Z,9.55
2023-05-16T17:35:10.678Z,10.77
2023-05-16T17:37:38.337Z,12.17
2023-05-16T17:40:10.017Z,9.25
2023-05-16T17:42:38.551Z,11.15
2023-05-16T17:45:08.129Z,16.83
2023-05-16T17:47:35.800Z,9.43
2023-05-16T17:50:03.618Z,13.47
2023-05-16T17:52:31.563Z,12.43
2023-05-16T17:54:59.217Z,9.50
2023-05-16T17:57:26.973Z,13.15
2023-05-16T17:59:55.082Z,9.77
2023-05-16T18:02:22.807Z,10.10
2023-05-16T18:04:51.608Z,12.40
2023-05-16T18:07:19.141Z,9.30
2023-05-16T18:09:46.681Z,11.10
2023-05-16T18:12:15.057Z,12.50
2023-05-16T18:14:45.264Z,11.37
2023-05-16T18:17:13.542Z,12.10
2023-05-16T18:19:41.685Z,14.63
2023-05-16T18:22:11.989Z,12.15
2023-05-16T18:24:40.071Z,11.75
2023-05-16T18:27:08.046Z,14.03
2023-05-16T18:29:35.635Z,11.18
2023-05-16T18:32:03.389Z,11.12
2023-05-16T18:34:31.611Z,10.60
2023-05-16T18:36:59.211Z,11.20
2023-05-16T18:39:26.797Z,14.53
2023-05-16T18:41:55.602Z,12.45
2023-05-16T18:44:23.175Z,14.25
2023-05-16T18:46:50.836Z,13.93
2023-05-16T18:49:18.689Z,12.88
2023-05-16T18:51:46.246Z,9.17
2023-05-16T18:54:13.858Z,9.07
2023-05-16T18:56:42.991Z,11.98
2023-05-16T18:59:10.629Z,9.02
2023-05-16T19:01:38.264Z,9.35
2023-05-16T19:04:06.963Z,10.30
2023-05-16T19:06:34.565Z,8.65
2023-05-16T19:09:02.137Z,9.57
2023-05-16T19:11:30.044Z,10.82
2023-05-16T19:13:57.609Z,11.18
2023-05-16T19:16:25.194Z,12.57
2023-05-16T19:18:53.320Z,9.75
2023-05-16T19:21:21.148Z,11.70
2023-05-16T19:23:48.714Z,10.88
2023-05-16T19:26:16.696Z,8.68
2023-05-16T19:28:44.208Z,9.10
2023-05-16T19:31:11.833Z,12.50
2023-05-16T19:33:39.716Z,8.95
2023-05-16T19:36:08.007Z,13.98
2023-05-16T19:38:35.634Z,12.02
2023-05-16T19:41:03.503Z,12.00
2023-05-16T19:43:31.157Z,11.52
2023-05-16T19:45:58.714Z,10.55
2023-05-16T19:48:26.811Z,7.32
2023-05-16T19:50:54.531Z,7.68
2023-05-16T19:53:22.409Z,9.57
2023-05-16T19:55:50.313Z,8.80
2023-05-16T19:58:18.095Z,17.52
2023-05-16T20:00:47.038Z,13.50
2023-05-16T20:03:15.206Z,8.70
2023-05-16T20:05:42.832Z,10.10
2023-05-16T20:08:12.032Z,7.62
2023-05-16T20:10:40.337Z,10.30
2023-05-16T20:13:08.423Z,6.00
2023-05-16T20:15:36.201Z,8.18
2023-05-16T20:18:04.233Z,7.20
2023-05-16T20:20:31.909Z,7.60
2023-05-16T20:22:59.449Z,9.07
2023-05-16T20:25:27.786Z,10.15
2023-05-16T20:27:55.583Z,9.73
2023-05-16T20:30:23.142Z,6.90
2023-05-16T20:32:51.065Z,10.82
2023-05-16T20:35:18.755Z,9.50
2023-05-16T20:37:46.262Z,7.12
2023-05-16T20:40:14.192Z,8.52
2023-05-16T20:42:41.722Z,10.10
2023-05-16T20:45:09.772Z,11.27
2023-05-16T20:47:37.708Z,12.75
2023-05-16T20:50:05.853Z,11.50
2023-05-16T20:52:33.456Z,9.73
2023-05-16T20:55:01.625Z,9.10
2023-05-16T20:57:29.213Z,12.45
2023-05-16T20:59:56.830Z,12.45
2023-05-16T21:02:24.756Z,12.13
2023-05-16T21:04:52.446Z,10.23
2023-05-16T21:07:20.057Z,11.80
2023-05-16T21:09:48.411Z,14.45
2023-05-16T21:12:15.987Z,11.93
2023-05-16T21:14:44.317Z,10.57
2023-05-16T21:17:12.383Z,9.18
2023-05-16T21:19:39.946Z,11.80
2023-05-16T21:22:07.602Z,10.48
2023-05-16T21:24:37.405Z,15.10
2023-05-16T21:27:05.329Z,12.10
2023-05-16T21:29:33.078Z,12.27
2023-05-16T21:32:01.116Z,11.17
2023-05-16T21:34:28.981Z,11.63
2023-05-16T21:36:57.977Z,12.02
2023-05-16T21:39:26.033Z,13.18
2023-05-16T21:41:54.345Z,9.82
2023-05-16T21:44:22.831Z,16.33
2023-05-16T21:46:50.661Z,13.23
2023-05-16T21:49:18.173Z,10.60
2023-05-16T21:51:45.792Z,11.32
2023-05-16T21:54:13.717Z,10.60
2023-05-16T21:56:41.414Z,10.90
2023-05-16T21:59:08.928Z,9.35
2023-05-16T22:01:36.801Z,12.35
2023-05-16T22:04:04.888Z,9.15
2023-05-16T22:06:32.541Z,12.27
2023-05-16T22:09:01.631Z,9.03
2023-05-16T22:11:29.589Z,7.93
2023-05-16T22:13:57.268Z,8.02
2023-05-16T22:16:25.023Z,8.65
2023-05-16T22:18:53.275Z,9.10
2023-05-16T22:21:21.048Z,6.67
2023-05-16T22:23:48.657Z,8.07
2023-05-16T22:26:16.517Z,9.50
2023-05-16T22:28:44.102Z,9.60
2023-05-16T22:31:11.652Z,10.65
2023-05-16T22:33:39.575Z,7.43
2023-05-16T22:36:07.415Z,12.25
2023-05-16T22:38:35.032Z,10.40
2023-05-16T22:41:02.898Z,9.18
2023-05-16T22:43:30.598Z,10.32
2023-05-16T22:45:58.557Z,9.90
2023-05-16T22:48:27.257Z,7.62
2023-05-16T22:50:54.832Z,7.70
2023-05-16T22:53:22.377Z,9.30
2023-05-16T22:55:50.302Z,10.45
2023-05-16T22:58:17.979Z,6.83
2023-05-16T23:00:45.772Z,8.93
2023-05-16T23:03:13.763Z,7.75
2023-05-16T23:05:41.499Z,9.15
2023-05-16T23:08:09.143Z,10.55
2023-05-16T23:10:37.067Z,8.87
2023-05-16T23:13:04.682Z,8.25
2023-05-16T23:15:32.268Z,9.38
2023-05-16T23:18:00.214Z,7.25
2023-05-16T23:20:27.835Z,8.57
2023-05-16T23:22:55.351Z,7.50
2023-05-16T23:25:23.520Z,7.20
2023-05-16T23:27:51.068Z,7.70
2023-05-16T23:30:18.579Z,8.45
2023-05-16T23:32:46.458Z,7.87
2023-05-16T23:35:14.100Z,8.00
2023-05-16T23:37:41.677Z,6.57
2023-05-16T23:40:09.983Z,7.60
2023-05-16T23:42:37.596Z,6.97
2023-05-16T23:45:05.794Z,10.57
2023-05-16T23:47:33.704Z,6.30
2023-05-16T23:50:01.688Z,7.72
2023-05-16T23:52:29.250Z,5.82
2023-05-16T23:54:57.132Z,7.32
2023-05-16T23:57:24.660Z,7.05
2023-05-16T23:59:52.212Z,10.37
